createdAt,value
2018-01-04T00:00:23.731Z,6.70
2018-01-04T00:01:23.721Z,6.75
2018-01-04T00:02:23.712Z,7.84
2018-01-04T00:03:23.702Z,6.43
2018-01-04T00:04:23.716Z,6.80
2018-01-04T00:05:23.689Z,6.76
2018-01-04T00:06:23.683Z,6.87
2018-01-04T00:07:23.677Z,6.96
2018-01-04T00:08:23.669Z,6.06
2018-01-04T00:09:23.663Z,7.05
2018-01-04T00:10:23.659Z,6.66
2018-01-04T00:11:23.652Z,7.01
2018-01-04T00:12:23.645Z,6.72
2018-01-04T00:13:23.641Z,6.54
2018-01-04T00:14:23.627Z,6.70
2018-01-04T00:15:23.626Z,6.63
2018-01-04T00:16:23.618Z,6.93
2018-01-04T00:17:23.616Z,6.67
2018-01-04T00:18:23.610Z,6.84
2018-01-04T00:19:23.606Z,6.42
2018-01-04T00:20:23.599Z,6.79
2018-01-04T00:21:23.589Z,7.22
2018-01-04T00:22:23.577Z,7.39
2018-01-04T00:23:23.580Z,6.56
2018-01-04T00:24:23.566Z,6.62
2018-01-04T00:25:23.563Z,7.00
2018-01-04T00:26:23.558Z,8.38
2018-01-04T00:27:23.549Z,6.53
2018-01-04T00:28:23.542Z,6.81
2018-01-04T00:29:23.537Z,6.64
2018-01-04T00:30:23.526Z,7.44
2018-01-04T00:31:23.519Z,7.96
2018-01-04T00:32:23.512Z,6.40
2018-01-04T00:33:23.508Z,6.61
2018-01-04T00:34:23.504Z,6.93
2018-01-04T00:35:23.497Z,6.32
2018-01-04T00:36:23.488Z,6.70
2018-01-04T00:37:23.486Z,6.87
2018-01-04T00:38:23.477Z,7.34
2018-01-04T00:39:23.465Z,7.31
2018-01-04T00:40:23.467Z,7.93
2018-01-04T00:41:23.460Z,6.60
2018-01-04T00:42:23.448Z,6.56
2018-01-04T00:43:23.451Z,6.67
2018-01-04T00:44:23.443Z,7.12
2018-01-04T00:45:23.433Z,6.96
2018-01-04T00:46:23.417Z,7.08
2018-01-04T00:47:23.418Z,6.78
2018-01-04T00:48:23.412Z,7.19
2018-01-04T00:49:23.408Z,6.27
2018-01-04T00:50:23.398Z,6.03
2018-01-04T00:51:23.386Z,6.38
2018-01-04T00:52:23.387Z,7.03
2018-01-04T00:53:23.386Z,6.69
2018-01-04T00:54:23.379Z,6.23
2018-01-04T00:55:23.369Z,6.80
2018-01-04T00:56:23.373Z,6.46
2018-01-04T00:57:23.359Z,6.66
2018-01-04T00:58:23.348Z,7.77
2018-01-04T00:59:23.388Z,7.01
2018-01-04T01:00:23.349Z,7.11
2018-01-04T01:01:23.328Z,7.42
2018-01-04T01:02:23.324Z,6.76
2018-01-04T01:03:23.308Z,6.80
2018-01-04T01:04:23.308Z,6.57
2018-01-04T01:05:23.304Z,6.95
2018-01-04T01:06:23.299Z,7.11
2018-01-04T01:07:23.308Z,7.23
2018-01-04T01:08:23.290Z,7.27
2018-01-04T01:09:23.282Z,7.28
2018-01-04T01:10:23.268Z,6.39
2018-01-04T01:11:23.274Z,6.46
2018-01-04T01:12:23.261Z,7.07
2018-01-04T01:13:23.249Z,6.96
2018-01-04T01:14:23.251Z,6.99
2018-01-04T01:15:23.787Z,6.57
2018-01-04T01:16:23.239Z,6.57
2018-01-04T01:17:23.219Z,6.36
2018-01-04T01:18:23.209Z,6.25
2018-01-04T01:19:23.220Z,6.61
2018-01-04T01:20:23.206Z,7.20
2018-01-04T01:21:23.201Z,6.29
2018-01-04T01:22:23.193Z,6.64
2018-01-04T01:23:23.204Z,6.48
2018-01-04T01:24:23.178Z,7.01
2018-01-04T01:25:23.173Z,7.18
2018-01-04T01:26:23.165Z,7.30
2018-01-04T01:27:23.157Z,6.61
2018-01-04T01:28:23.159Z,7.50
2018-01-04T01:29:23.155Z,6.88
2018-01-04T01:30:23.787Z,6.91
2018-01-04T01:31:23.137Z,7.76
2018-01-04T01:32:23.131Z,6.90
2018-01-04T01:33:23.122Z,6.96
2018-01-04T01:34:23.130Z,7.10
2018-01-04T01:35:23.126Z,6.93
2018-01-04T01:36:23.104Z,7.00
2018-01-04T01:37:23.102Z,7.07
2018-01-04T01:38:23.094Z,6.88
2018-01-04T01:39:23.795Z,7.19
2018-01-04T01:40:23.083Z,7.51
2018-01-04T01:41:23.070Z,6.87
2018-01-04T01:42:23.064Z,6.74
2018-01-04T01:43:23.057Z,7.29
2018-01-04T01:44:23.051Z,6.77
2018-01-04T01:45:23.056Z,6.34
2018-01-04T01:46:23.038Z,6.85
2018-01-04T01:47:23.032Z,6.26
2018-01-04T01:48:23.027Z,6.58
2018-01-04T01:49:23.022Z,6.84
2018-01-04T01:50:23.020Z,7.00
2018-01-04T01:51:23.008Z,6.59
2018-01-04T01:52:23.000Z,6.52
2018-01-04T01:53:23.001Z,6.41
2018-01-04T01:54:22.988Z,6.78
2018-01-04T01:55:23.000Z,6.57
2018-01-04T01:56:22.977Z,6.71
2018-01-04T01:57:22.968Z,6.10
2018-01-04T01:58:22.958Z,6.78
2018-01-04T01:59:22.953Z,6.68
2018-01-04T02:00:22.958Z,6.76
2018-01-04T02:01:22.945Z,6.82
2018-01-04T02:02:22.935Z,6.07
2018-01-04T02:03:22.927Z,6.90
2018-01-04T02:04:22.923Z,7.00
2018-01-04T02:05:22.921Z,6.48
2018-01-04T02:06:22.916Z,7.27
2018-01-04T02:07:22.908Z,6.41
2018-01-04T02:08:22.902Z,6.29
2018-01-04T02:09:22.894Z,7.16
2018-01-04T02:10:22.890Z,6.73
2018-01-04T02:11:22.875Z,7.84
2018-01-04T02:12:22.876Z,6.94
2018-01-04T02:13:22.874Z,6.38
2018-01-04T02:14:22.861Z,6.80
2018-01-04T02:15:23.809Z,6.96
2018-01-04T02:16:22.845Z,6.73
2018-01-04T02:17:22.839Z,6.48
2018-01-04T02:18:22.836Z,6.48
2018-01-04T02:19:22.824Z,6.25
2018-01-04T02:20:22.811Z,6.33
2018-01-04T02:21:22.814Z,6.63
2018-01-04T02:22:22.810Z,6.22
2018-01-04T02:23:22.804Z,6.49
2018-01-04T02:24:22.791Z,6.55
2018-01-04T02:25:22.789Z,6.24
2018-01-04T02:26:22.791Z,6.54
2018-01-04T02:27:22.776Z,6.36
2018-01-04T02:28:22.765Z,6.64
2018-01-04T02:29:22.766Z,6.02
2018-01-04T02:30:22.753Z,6.62
2018-01-04T02:31:22.748Z,7.32
2018-01-04T02:32:22.738Z,6.48
2018-01-04T02:33:22.740Z,6.39
2018-01-04T02:34:22.730Z,6.07
2018-01-04T02:35:22.723Z,6.55
2018-01-04T02:36:22.714Z,6.54
2018-01-04T02:37:22.712Z,7.30
2018-01-04T02:37:34.709Z,0.30
2018-01-04T02:39:22.699Z,6.42
2018-01-04T02:40:22.688Z,6.46
2018-01-04T02:41:22.688Z,6.41
2018-01-04T02:42:22.676Z,6.91
2018-01-04T02:43:22.671Z,6.77
2018-01-04T02:44:22.663Z,6.77
2018-01-04T02:45:22.686Z,6.36
2018-01-04T02:46:22.652Z,7.12
2018-01-04T02:47:22.658Z,7.07
2018-01-04T02:48:22.639Z,6.89
2018-01-04T02:49:22.645Z,6.55
2018-01-04T02:50:22.629Z,6.47
2018-01-04T02:51:22.620Z,6.89
2018-01-04T02:52:22.614Z,6.12
2018-01-04T02:53:22.612Z,6.57
2018-01-04T02:54:22.597Z,6.19
2018-01-04T02:55:22.589Z,6.18
2018-01-04T02:56:22.594Z,6.77
2018-01-04T02:57:22.589Z,6.67
2018-01-04T02:58:22.587Z,6.55
2018-01-04T02:59:22.564Z,6.34
2018-01-04T03:00:22.574Z,6.39
2018-01-04T03:01:22.557Z,5.86
2018-01-04T03:02:22.549Z,6.33
2018-01-04T03:03:22.544Z,7.01
2018-01-04T03:04:22.534Z,7.42
2018-01-04T03:05:22.529Z,7.56
2018-01-04T03:06:22.512Z,7.42
2018-01-04T03:07:22.516Z,6.78
2018-01-04T03:08:22.502Z,6.72
2018-01-04T03:09:22.499Z,6.59
2018-01-04T03:10:22.490Z,6.90
2018-01-04T03:11:22.485Z,6.68
2018-01-04T03:12:22.478Z,7.58
2018-01-04T03:13:22.473Z,7.42
2018-01-04T03:14:22.467Z,7.22
2018-01-04T03:15:22.458Z,7.37
2018-01-04T03:16:22.448Z,8.53
2018-01-04T03:17:22.447Z,7.14
2018-01-04T03:18:22.439Z,7.34
2018-01-04T03:19:22.432Z,7.17
2018-01-04T03:20:22.424Z,8.02
2018-01-04T03:21:22.429Z,6.96
2018-01-04T03:22:22.410Z,7.09
2018-01-04T03:23:22.408Z,6.85
2018-01-04T03:24:22.400Z,7.87
2018-01-04T03:25:22.391Z,7.25
2018-01-04T03:26:22.372Z,7.09
2018-01-04T03:27:22.374Z,6.43
2018-01-04T03:28:22.370Z,6.86
2018-01-04T03:29:23.332Z,7.40
2018-01-04T03:30:22.355Z,7.23
2018-01-04T03:31:22.348Z,6.73
2018-01-04T03:32:22.342Z,7.60
2018-01-04T03:33:22.339Z,7.45
2018-01-04T03:34:22.333Z,7.33
2018-01-04T03:35:22.316Z,7.44
2018-01-04T03:36:22.314Z,7.01
2018-01-04T03:37:22.319Z,7.09
2018-01-04T03:38:22.306Z,7.68
2018-01-04T03:39:22.295Z,7.91
2018-01-04T03:40:22.292Z,7.47
2018-01-04T03:41:22.281Z,6.72
2018-01-04T03:42:22.272Z,6.34
2018-01-04T03:43:22.267Z,7.54
2018-01-04T03:44:22.265Z,7.51
2018-01-04T03:45:22.255Z,8.33
2018-01-04T03:46:22.250Z,9.29
2018-01-04T03:47:22.238Z,7.82
2018-01-04T03:48:22.235Z,7.06
2018-01-04T03:49:22.233Z,7.56
2018-01-04T03:50:22.223Z,8.88
2018-01-04T03:51:22.846Z,7.81
2018-01-04T03:52:22.209Z,8.14
2018-01-04T03:53:22.204Z,8.27
2018-01-04T03:54:22.191Z,8.74
2018-01-04T03:55:22.186Z,10.75
2018-01-04T03:56:22.185Z,11.99
2018-01-04T03:57:22.177Z,8.75
2018-01-04T03:58:22.173Z,8.70
2018-01-04T03:59:22.847Z,7.89
2018-01-04T04:00:22.153Z,7.68
2018-01-04T04:01:22.152Z,7.37
2018-01-04T04:02:22.132Z,8.38
2018-01-04T04:03:22.137Z,7.24
2018-01-04T04:04:22.128Z,7.88
2018-01-04T04:05:22.121Z,7.04
2018-01-04T04:06:22.117Z,7.11
2018-01-04T04:07:22.113Z,7.78
2018-01-04T04:08:22.103Z,6.94
2018-01-04T04:09:22.098Z,7.40
2018-01-04T04:10:22.091Z,7.37
2018-01-04T04:11:22.081Z,7.48
2018-01-04T04:12:22.081Z,7.86
2018-01-04T04:13:22.060Z,6.67
2018-01-04T04:14:22.060Z,7.54
2018-01-04T04:15:22.063Z,7.43
2018-01-04T04:16:22.046Z,7.16
2018-01-04T04:17:22.044Z,7.78
2018-01-04T04:18:22.029Z,7.00
2018-01-04T04:19:22.026Z,7.25
2018-01-04T04:20:22.024Z,7.43
2018-01-04T04:21:22.019Z,7.25
2018-01-04T04:22:22.010Z,7.93
2018-01-04T04:23:21.996Z,7.51
2018-01-04T04:24:22.005Z,7.56
2018-01-04T04:25:21.992Z,6.98
2018-01-04T04:26:21.984Z,7.27
2018-01-04T04:27:21.978Z,7.07
2018-01-04T04:28:21.973Z,7.55
2018-01-04T04:29:21.962Z,6.70
2018-01-04T04:30:21.954Z,7.53
2018-01-04T04:31:21.946Z,6.78
2018-01-04T04:32:21.931Z,6.89
2018-01-04T04:33:21.936Z,7.39
2018-01-04T04:34:21.926Z,7.19
2018-01-04T04:35:21.921Z,7.27
2018-01-04T04:36:21.914Z,7.85
2018-01-04T04:37:21.910Z,7.76
2018-01-04T04:38:21.911Z,7.00
2018-01-04T04:39:21.898Z,7.40
2018-01-04T04:40:21.896Z,7.27
2018-01-04T04:41:21.880Z,7.24
2018-01-04T04:42:21.873Z,7.78
2018-01-04T04:43:21.867Z,7.26
2018-01-04T04:44:21.859Z,7.27
2018-01-04T04:45:21.858Z,7.49
2018-01-04T04:46:21.850Z,7.42
2018-01-04T04:47:21.840Z,7.09
2018-01-04T04:47:33.844Z,0.28
2018-01-04T04:49:21.831Z,7.57
2018-01-04T04:50:21.825Z,7.73
2018-01-04T04:51:21.814Z,7.47
2018-01-04T04:52:21.812Z,7.48
2018-01-04T04:53:21.798Z,7.90
2018-01-04T04:54:21.794Z,7.88
2018-01-04T04:55:21.783Z,6.88
2018-01-04T04:56:21.786Z,7.20
2018-01-04T04:57:21.775Z,8.66
2018-01-04T04:58:21.764Z,8.16
2018-01-04T04:59:21.767Z,7.54
2018-01-04T05:00:21.751Z,7.89
2018-01-04T05:01:21.751Z,7.66
2018-01-04T05:02:21.738Z,7.48
2018-01-04T05:03:21.734Z,7.65
2018-01-04T05:04:21.735Z,7.79
2018-01-04T05:05:21.726Z,7.48
2018-01-04T05:06:21.713Z,8.64
2018-01-04T05:07:21.710Z,7.96
2018-01-04T05:08:21.723Z,7.70
2018-01-04T05:09:21.702Z,7.26
2018-01-04T05:10:21.691Z,7.64
2018-01-04T05:11:21.677Z,7.94
2018-01-04T05:12:21.673Z,7.52
2018-01-04T05:13:21.669Z,8.21
2018-01-04T05:14:21.659Z,7.28
2018-01-04T05:15:21.651Z,7.92
2018-01-04T05:16:21.660Z,7.19
2018-01-04T05:17:21.642Z,6.68
2018-01-04T05:18:21.639Z,7.50
2018-01-04T05:19:21.633Z,8.05
2018-01-04T05:20:21.624Z,8.08
2018-01-04T05:21:21.619Z,8.78
2018-01-04T05:22:21.611Z,9.11
2018-01-04T05:23:21.603Z,8.19
2018-01-04T05:24:21.591Z,6.96
2018-01-04T05:25:21.594Z,7.78
2018-01-04T05:26:21.580Z,8.78
2018-01-04T05:27:21.574Z,7.52
2018-01-04T05:28:21.562Z,7.84
2018-01-04T05:29:21.562Z,8.30
2018-01-04T05:30:21.552Z,8.12
2018-01-04T05:31:21.549Z,7.50
2018-01-04T05:32:21.537Z,7.82
2018-01-04T05:33:21.540Z,7.15
2018-01-04T05:34:21.523Z,7.42
2018-01-04T05:35:21.511Z,7.61
2018-01-04T05:36:21.519Z,8.20
2018-01-04T05:37:21.512Z,7.84
2018-01-04T05:38:21.497Z,7.96
2018-01-04T05:39:21.493Z,7.68
2018-01-04T05:40:21.499Z,7.61
2018-01-04T05:41:21.480Z,7.87
2018-01-04T05:42:21.463Z,8.08
2018-01-04T05:43:21.466Z,7.58
2018-01-04T05:44:21.456Z,8.17
2018-01-04T05:45:21.452Z,7.56
2018-01-04T05:46:21.447Z,8.72
2018-01-04T05:47:21.444Z,8.37
2018-01-04T05:48:21.434Z,7.38
2018-01-04T05:49:21.424Z,7.55
2018-01-04T05:50:21.411Z,7.60
2018-01-04T05:51:21.409Z,7.70
2018-01-04T05:52:21.398Z,7.99
2018-01-04T05:53:21.393Z,6.95
2018-01-04T05:54:21.393Z,7.06
2018-01-04T05:55:21.386Z,8.06
2018-01-04T05:56:21.379Z,7.45
2018-01-04T05:56:33.378Z,0.31
2018-01-04T05:58:21.354Z,7.30
2018-01-04T05:59:21.356Z,7.25
2018-01-04T06:00:21.348Z,7.07
2018-01-04T06:01:21.338Z,7.50
2018-01-04T06:02:21.334Z,6.85
2018-01-04T06:03:21.327Z,7.01
2018-01-04T06:04:21.323Z,7.62
2018-01-04T06:05:21.305Z,7.30
2018-01-04T06:06:21.315Z,8.35
2018-01-04T06:07:21.297Z,7.26
2018-01-04T06:08:21.290Z,7.57
2018-01-04T06:09:21.285Z,7.05
2018-01-04T06:10:21.286Z,7.07
2018-01-04T06:11:21.272Z,6.95
2018-01-04T06:12:21.263Z,7.24
2018-01-04T06:13:21.272Z,7.16
2018-01-04T06:14:21.251Z,6.69
2018-01-04T06:15:21.244Z,7.10
2018-01-04T06:16:21.235Z,7.81
2018-01-04T06:17:21.237Z,7.07
2018-01-04T06:18:21.908Z,7.57
2018-01-04T06:19:21.217Z,6.92
2018-01-04T06:20:21.207Z,6.91
2018-01-04T06:21:21.196Z,7.24
2018-01-04T06:22:21.193Z,7.29
2018-01-04T06:23:21.184Z,7.60
2018-01-04T06:24:21.177Z,7.10
2018-01-04T06:25:21.170Z,6.92
2018-01-04T06:26:21.161Z,6.98
2018-01-04T06:27:21.151Z,6.33
2018-01-04T06:28:21.140Z,7.14
2018-01-04T06:29:21.143Z,7.02
2018-01-04T06:30:21.136Z,6.92
2018-01-04T06:31:21.130Z,6.61
2018-01-04T06:32:21.123Z,6.59
2018-01-04T06:33:21.123Z,7.64
2018-01-04T06:34:21.109Z,6.57
2018-01-04T06:35:21.099Z,6.77
2018-01-04T06:36:21.096Z,6.98
2018-01-04T06:37:21.087Z,6.44
2018-01-04T06:38:21.079Z,6.35
2018-01-04T06:39:21.070Z,6.80
2018-01-04T06:40:21.062Z,6.94
2018-01-04T06:41:21.056Z,7.21
2018-01-04T06:42:21.048Z,6.80
2018-01-04T06:43:21.044Z,7.21
2018-01-04T06:44:21.030Z,7.99
2018-01-04T06:45:21.046Z,6.81
2018-01-04T06:46:21.022Z,6.04
2018-01-04T06:47:21.926Z,6.22
2018-01-04T06:48:21.046Z,6.41
2018-01-04T06:49:21.001Z,7.50
2018-01-04T06:50:20.993Z,6.56
2018-01-04T06:51:20.985Z,6.40
2018-01-04T06:52:20.980Z,6.47
2018-01-04T06:53:20.975Z,7.03
2018-01-04T06:54:20.972Z,6.46
2018-01-04T06:55:20.961Z,6.72
2018-01-04T06:56:20.954Z,6.32
2018-01-04T06:57:20.943Z,6.04
2018-01-04T06:58:20.939Z,6.99
2018-01-04T06:59:20.934Z,6.67
2018-01-04T07:00:20.929Z,6.60
2018-01-04T07:01:20.913Z,7.44
2018-01-04T07:02:20.918Z,6.70
2018-01-04T07:03:20.900Z,6.02
2018-01-04T07:04:20.894Z,6.90
2018-01-04T07:05:20.883Z,6.13
2018-01-04T07:06:20.876Z,6.79
2018-01-04T07:07:20.873Z,5.84
2018-01-04T07:08:20.868Z,6.76
2018-01-04T07:09:20.859Z,6.47
2018-01-04T07:10:20.852Z,6.96
2018-01-04T07:10:32.845Z,0.29
2018-01-04T07:12:20.851Z,6.74
2018-01-04T07:13:20.842Z,7.18
2018-01-04T07:14:20.829Z,6.94
2018-01-04T07:15:20.816Z,6.11
2018-01-04T07:16:20.820Z,6.43
2018-01-04T07:17:20.803Z,6.35
2018-01-04T07:18:20.796Z,7.25
2018-01-04T07:19:20.786Z,6.61
2018-01-04T07:20:20.782Z,6.53
2018-01-04T07:21:20.777Z,6.65
2018-01-04T07:22:20.769Z,7.42
2018-01-04T07:23:20.759Z,6.95
2018-01-04T07:24:20.756Z,7.22
2018-01-04T07:25:20.752Z,7.11
2018-01-04T07:26:20.742Z,6.59
2018-01-04T07:27:20.737Z,7.56
2018-01-04T07:28:20.731Z,7.39
2018-01-04T07:29:20.723Z,7.36
2018-01-04T07:30:20.719Z,7.30
2018-01-04T07:31:20.707Z,7.91
2018-01-04T07:32:20.706Z,6.90
2018-01-04T07:33:20.692Z,6.99
2018-01-04T07:34:20.689Z,7.50
2018-01-04T07:35:20.676Z,6.93
2018-01-04T07:36:20.672Z,6.52
2018-01-04T07:37:20.669Z,6.48
2018-01-04T07:38:20.652Z,6.87
2018-01-04T07:39:20.649Z,6.27
2018-01-04T07:40:20.643Z,7.34
2018-01-04T07:41:20.642Z,6.90
2018-01-04T07:42:20.638Z,6.91
2018-01-04T07:43:20.631Z,6.44
2018-01-04T07:44:20.621Z,7.14
2018-01-04T07:45:20.615Z,6.98
2018-01-04T07:46:20.604Z,6.75
2018-01-04T07:47:20.603Z,6.31
2018-01-04T07:48:20.603Z,6.60
2018-01-04T07:49:20.584Z,6.30
2018-01-04T07:50:20.576Z,6.07
2018-01-04T07:51:20.568Z,6.56
2018-01-04T07:52:20.566Z,7.02
2018-01-04T07:53:20.555Z,6.42
2018-01-04T07:54:20.546Z,6.09
2018-01-04T07:55:20.542Z,6.39
2018-01-04T07:56:20.537Z,7.65
2018-01-04T07:57:20.534Z,6.31
2018-01-04T07:58:20.521Z,6.38
2018-01-04T07:59:21.446Z,6.50
2018-01-04T08:00:20.517Z,6.12
2018-01-04T08:01:20.507Z,6.64
2018-01-04T08:02:20.492Z,7.23
2018-01-04T08:03:20.490Z,6.98
2018-01-04T08:04:20.484Z,8.01
2018-01-04T08:05:20.476Z,8.09
2018-01-04T08:06:20.469Z,8.16
2018-01-04T08:07:20.467Z,9.45
2018-01-04T08:08:20.481Z,8.71
2018-01-04T08:09:20.450Z,7.37
2018-01-04T08:10:20.439Z,6.32
2018-01-04T08:11:20.433Z,7.45
2018-01-04T08:12:20.426Z,16.45
2018-01-04T08:13:20.428Z,10.84
2018-01-04T08:14:20.420Z,9.14
2018-01-04T08:15:20.408Z,7.95
2018-01-04T08:16:20.413Z,9.59
2018-01-04T08:17:20.388Z,9.03
2018-01-04T08:18:20.387Z,8.36
2018-01-04T08:19:20.382Z,7.50
2018-01-04T08:20:20.374Z,9.65
2018-01-04T08:21:20.369Z,9.72
2018-01-04T08:22:20.360Z,7.90
2018-01-04T08:23:20.356Z,6.54
2018-01-04T08:24:20.347Z,6.48
2018-01-04T08:25:20.336Z,6.81
2018-01-04T08:26:20.331Z,7.54
2018-01-04T08:27:20.325Z,7.32
2018-01-04T08:28:20.315Z,7.42
2018-01-04T08:29:20.318Z,6.54
2018-01-04T08:30:20.310Z,6.46
2018-01-04T08:31:20.300Z,6.43
2018-01-04T08:32:20.292Z,5.77
2018-01-04T08:33:20.957Z,5.80
2018-01-04T08:34:20.288Z,6.17
2018-01-04T08:35:20.276Z,6.12
2018-01-04T08:36:20.271Z,8.90
2018-01-04T08:37:20.267Z,8.82
2018-01-04T08:38:20.248Z,7.77
2018-01-04T08:39:20.247Z,6.74
2018-01-04T08:40:20.241Z,6.95
2018-01-04T08:41:20.230Z,8.88
2018-01-04T08:42:22.956Z,12.92
2018-01-04T08:43:20.223Z,11.86
2018-01-04T08:44:20.217Z,7.00
2018-01-04T08:45:20.214Z,6.60
2018-01-04T08:46:20.205Z,6.12
2018-01-04T08:47:20.206Z,6.05
2018-01-04T08:48:20.195Z,6.08
2018-01-04T08:49:20.176Z,6.66
2018-01-04T08:50:20.186Z,8.59
2018-01-04T08:51:20.212Z,7.23
2018-01-04T08:52:20.166Z,6.94
2018-01-04T08:53:20.176Z,6.26
2018-01-04T08:54:20.151Z,7.22
2018-01-04T08:55:20.142Z,5.89
2018-01-04T08:56:20.135Z,5.84
2018-01-04T08:57:20.144Z,5.69
2018-01-04T08:58:20.123Z,5.25
2018-01-04T08:59:20.123Z,6.51
2018-01-04T09:00:20.117Z,6.90
2018-01-04T09:01:20.106Z,6.76
2018-01-04T09:02:20.102Z,8.00
2018-01-04T09:03:20.081Z,7.44
2018-01-04T09:04:20.082Z,5.76
2018-01-04T09:05:20.084Z,5.92
2018-01-04T09:06:20.072Z,6.32
2018-01-04T09:07:20.967Z,7.20
2018-01-04T09:08:20.059Z,5.63
2018-01-04T09:09:20.058Z,5.40
2018-01-04T09:10:20.048Z,5.69
2018-01-04T09:11:20.042Z,5.69
2018-01-04T09:12:20.039Z,5.92
2018-01-04T09:13:20.971Z,5.52
2018-01-04T09:14:20.029Z,6.19
2018-01-04T09:15:20.013Z,6.08
2018-01-04T09:16:20.013Z,6.50
2018-01-04T09:17:20.001Z,6.62
2018-01-04T09:18:19.993Z,5.67
2018-01-04T09:19:19.992Z,5.38
2018-01-04T09:20:20.971Z,5.32
2018-01-04T09:21:19.973Z,5.20
2018-01-04T09:22:19.968Z,5.52
2018-01-04T09:23:19.963Z,5.34
2018-01-04T09:24:19.957Z,5.10
2018-01-04T09:25:19.949Z,4.88
2018-01-04T09:26:19.945Z,4.82
2018-01-04T09:27:19.941Z,4.84
2018-01-04T09:28:19.927Z,4.63
2018-01-04T09:29:19.926Z,4.14
2018-01-04T09:30:19.924Z,4.36
2018-01-04T09:31:19.916Z,4.90
2018-01-04T09:32:19.910Z,4.24
2018-01-04T09:33:19.898Z,4.20
2018-01-04T09:34:19.886Z,4.77
2018-01-04T09:35:19.884Z,4.12
2018-01-04T09:36:19.881Z,3.93
2018-01-04T09:37:19.873Z,3.78
2018-01-04T09:38:19.860Z,3.66
2018-01-04T09:39:19.857Z,3.74
2018-01-04T09:40:19.851Z,3.34
2018-01-04T09:41:19.848Z,3.68
2018-01-04T09:42:19.837Z,3.62
2018-01-04T09:43:19.841Z,3.64
2018-01-04T09:44:19.828Z,3.76
2018-01-04T09:45:20.479Z,3.37
2018-01-04T09:46:19.814Z,3.52
2018-01-04T09:47:19.809Z,3.91
2018-01-04T09:48:19.797Z,3.39
2018-01-04T09:49:19.796Z,3.54
2018-01-04T09:50:19.785Z,3.71
2018-01-04T09:51:19.785Z,3.36
2018-01-04T09:52:19.772Z,3.62
2018-01-04T09:53:19.771Z,3.31
2018-01-04T09:54:19.758Z,3.66
2018-01-04T09:55:19.755Z,3.20
2018-01-04T09:56:19.744Z,3.24
2018-01-04T09:57:19.744Z,3.63
2018-01-04T09:58:19.738Z,4.04
2018-01-04T09:59:19.730Z,3.47
2018-01-04T10:00:19.725Z,3.32
2018-01-04T10:01:19.718Z,3.32
2018-01-04T10:02:19.707Z,3.22
2018-01-04T10:03:19.692Z,2.87
2018-01-04T10:04:19.695Z,3.09
2018-01-04T10:05:19.688Z,3.06
2018-01-04T10:06:19.695Z,2.47
2018-01-04T10:07:19.682Z,3.08
2018-01-04T10:08:19.691Z,3.10
2018-01-04T10:09:19.664Z,2.98
2018-01-04T10:10:19.650Z,2.72
2018-01-04T10:11:19.643Z,3.02
2018-01-04T10:12:19.652Z,3.54
2018-01-04T10:13:19.636Z,3.16
2018-01-04T10:14:19.630Z,3.23
2018-01-04T10:15:19.621Z,2.97
2018-01-04T10:16:19.620Z,2.96
2018-01-04T10:17:19.611Z,3.16
2018-01-04T10:18:19.609Z,3.18
2018-01-04T10:19:19.596Z,3.04
2018-01-04T10:20:19.589Z,3.15
2018-01-04T10:21:19.590Z,3.04
2018-01-04T10:22:20.505Z,2.92
2018-01-04T10:23:19.579Z,3.07
2018-01-04T10:24:19.568Z,3.04
2018-01-04T10:25:19.567Z,3.29
2018-01-04T10:26:19.559Z,2.94
2018-01-04T10:27:19.547Z,2.92
2018-01-04T10:28:19.541Z,2.68
2018-01-04T10:29:19.541Z,3.20
2018-01-04T10:30:19.527Z,2.73
2018-01-04T10:31:19.523Z,2.54
2018-01-04T10:32:19.530Z,2.55
2018-01-04T10:33:19.514Z,2.64
2018-01-04T10:34:19.496Z,2.84
2018-01-04T10:35:19.515Z,2.59
2018-01-04T10:36:19.493Z,2.63
2018-01-04T10:37:19.487Z,2.78
2018-01-04T10:38:19.482Z,2.75
2018-01-04T10:39:19.475Z,2.56
2018-01-04T10:40:19.467Z,2.84
2018-01-04T10:41:19.474Z,2.62
2018-01-04T10:42:19.456Z,2.40
2018-01-04T10:43:19.445Z,2.38
2018-01-04T10:44:19.440Z,2.60
2018-01-04T10:45:19.437Z,2.81
2018-01-04T10:46:19.430Z,2.22
2018-01-04T10:47:19.426Z,2.30
2018-01-04T10:48:19.415Z,2.39
2018-01-04T10:49:19.414Z,2.52
2018-01-04T10:50:19.403Z,2.90
2018-01-04T10:51:19.400Z,2.72
2018-01-04T10:52:19.391Z,3.48
2018-01-04T10:53:19.399Z,3.31
2018-01-04T10:54:19.389Z,3.01
2018-01-04T10:55:19.378Z,3.20
2018-01-04T10:56:19.377Z,2.77
2018-01-04T10:57:19.367Z,2.47
2018-01-04T10:58:19.351Z,2.54
2018-01-04T10:59:19.346Z,2.55
2018-01-04T11:00:19.347Z,2.09
2018-01-04T11:01:19.350Z,2.22
2018-01-04T11:02:19.335Z,2.32
2018-01-04T11:03:19.326Z,2.34
2018-01-04T11:04:19.319Z,2.21
2018-01-04T11:05:19.320Z,2.31
2018-01-04T11:06:19.306Z,2.12
2018-01-04T11:07:19.302Z,1.81
2018-01-04T11:08:19.297Z,1.78
2018-01-04T11:09:19.290Z,1.54
2018-01-04T11:10:19.291Z,1.75
2018-01-04T11:11:19.284Z,1.69
2018-01-04T11:12:19.266Z,1.82
2018-01-04T11:13:19.268Z,1.84
2018-01-04T11:14:19.260Z,1.82
2018-01-04T11:15:19.254Z,2.11
2018-01-04T11:16:19.248Z,2.27
2018-01-04T11:17:19.253Z,2.60
2018-01-04T11:18:19.239Z,2.39
2018-01-04T11:19:19.240Z,2.26
2018-01-04T11:20:19.228Z,2.52
2018-01-04T11:21:19.226Z,2.83
2018-01-04T11:22:19.209Z,2.66
2018-01-04T11:23:19.212Z,3.04
2018-01-04T11:24:19.204Z,2.83
2018-01-04T11:25:19.199Z,2.72
2018-01-04T11:26:19.189Z,2.72
2018-01-04T11:27:19.182Z,3.20
2018-01-04T11:28:19.206Z,3.33
2018-01-04T11:29:20.023Z,3.13
2018-01-04T11:30:19.165Z,3.09
2018-01-04T11:31:19.165Z,2.98
2018-01-04T11:32:19.159Z,3.42
2018-01-04T11:33:19.146Z,3.32
2018-01-04T11:34:19.144Z,3.30
2018-01-04T11:35:19.142Z,3.29
2018-01-04T11:36:19.151Z,3.15
2018-01-04T11:37:19.123Z,3.18
2018-01-04T11:38:19.116Z,3.58
2018-01-04T11:39:19.112Z,3.64
2018-01-04T11:40:19.106Z,2.92
2018-01-04T11:41:19.095Z,3.00
2018-01-04T11:42:19.091Z,3.45
2018-01-04T11:43:19.087Z,3.21
2018-01-04T11:44:19.076Z,3.36
2018-01-04T11:45:19.075Z,3.20
2018-01-04T11:46:19.074Z,3.48
2018-01-04T11:47:19.061Z,3.44
2018-01-04T11:48:19.055Z,3.69
2018-01-04T11:49:19.046Z,3.76
2018-01-04T11:50:19.044Z,3.47
2018-01-04T11:51:19.037Z,3.20
2018-01-04T11:52:19.036Z,3.47
2018-01-04T11:53:19.033Z,3.61
2018-01-04T11:54:19.021Z,3.20
2018-01-04T11:55:19.012Z,3.22
2018-01-04T11:56:19.009Z,3.47
2018-01-04T11:57:19.005Z,3.63
2018-01-04T11:58:19.048Z,3.42
2018-01-04T11:59:18.990Z,3.36
2018-01-04T12:00:18.981Z,3.57
2018-01-04T12:01:18.977Z,3.42
2018-01-04T12:02:18.973Z,3.40
2018-01-04T12:03:18.968Z,3.22
2018-01-04T12:04:18.955Z,2.98
2018-01-04T12:05:18.952Z,3.03
2018-01-04T12:06:18.947Z,3.14
2018-01-04T12:07:18.944Z,3.31
2018-01-04T12:08:18.933Z,3.25
2018-01-04T12:09:18.931Z,2.80
2018-01-04T12:10:18.925Z,2.80
2018-01-04T12:11:18.928Z,2.93
2018-01-04T12:12:18.914Z,2.95
2018-01-04T12:13:18.903Z,3.07
2018-01-04T12:14:18.895Z,2.73
2018-01-04T12:15:18.895Z,2.82
2018-01-04T12:16:18.885Z,2.65
2018-01-04T12:17:18.885Z,2.69
2018-01-04T12:18:18.872Z,3.02
2018-01-04T12:19:18.867Z,3.23
2018-01-04T12:20:18.859Z,3.28
2018-01-04T12:21:18.857Z,3.08
2018-01-04T12:22:18.849Z,2.92
2018-01-04T12:23:18.841Z,3.02
2018-01-04T12:24:18.839Z,2.99
2018-01-04T12:25:18.835Z,2.91
2018-01-04T12:26:18.826Z,3.06
2018-01-04T12:27:18.820Z,3.28
2018-01-04T12:28:18.815Z,3.46
2018-01-04T12:29:18.806Z,3.12
2018-01-04T12:30:18.789Z,3.04
2018-01-04T12:31:18.796Z,3.38
2018-01-04T12:32:18.785Z,3.24
2018-01-04T12:33:18.780Z,3.21
2018-01-04T12:34:18.770Z,3.17
2018-01-04T12:35:18.770Z,3.38
2018-01-04T12:36:18.763Z,3.02
2018-01-04T12:37:18.748Z,3.50
2018-01-04T12:38:18.750Z,3.50
2018-01-04T12:39:18.745Z,3.26
2018-01-04T12:40:18.739Z,3.58
2018-01-04T12:41:18.735Z,3.38
2018-01-04T12:42:18.724Z,3.63
2018-01-04T12:43:18.724Z,3.71
2018-01-04T12:44:18.712Z,3.60
2018-01-04T12:45:18.706Z,3.67
2018-01-04T12:46:18.694Z,3.88
2018-01-04T12:47:18.694Z,3.83
2018-01-04T12:48:18.687Z,3.90
2018-01-04T12:49:18.680Z,4.43
2018-01-04T12:50:18.678Z,4.35
2018-01-04T12:51:18.673Z,4.37
2018-01-04T12:52:18.653Z,5.47
2018-01-04T12:53:18.658Z,4.19
2018-01-04T12:54:18.652Z,4.50
2018-01-04T12:55:18.645Z,4.06
2018-01-04T12:56:18.636Z,4.91
2018-01-04T12:57:18.640Z,4.67
2018-01-04T12:58:18.627Z,4.34
2018-01-04T12:59:18.625Z,3.94
2018-01-04T13:00:18.612Z,3.90
2018-01-04T13:01:18.607Z,4.05
2018-01-04T13:02:18.600Z,4.03
2018-01-04T13:03:18.602Z,3.83
2018-01-04T13:04:18.585Z,3.73
2018-01-04T13:05:18.583Z,3.81
2018-01-04T13:06:18.573Z,3.80
2018-01-04T13:07:18.576Z,3.50
2018-01-04T13:08:18.563Z,3.99
2018-01-04T13:09:18.563Z,3.79
2018-01-04T13:10:18.557Z,3.67
2018-01-04T13:11:18.540Z,3.63
2018-01-04T13:12:18.540Z,3.64
2018-01-04T13:13:18.925Z,3.63
2018-01-04T13:14:18.537Z,4.31
2018-01-04T13:15:18.605Z,5.41
2018-01-04T13:16:18.560Z,4.38
2018-01-04T13:17:18.627Z,3.84
2018-01-04T13:18:18.506Z,3.88